International Skating Union - Official Site

Essent ISU World Cup Heerenveen
November 16-18, 2012

Draw | Lap Times | Index | World Cup

Referee: Daniel  CABELDUC  (SWE)
Starter: John Magne  ELIASSEN  (NOR)
StartTime: EndTime: Air Temp: Ice Temp: Humidity:

Detailed Result

Result Mass Start Ladies
Rankings as of Nov 18 2012 5:50PM
Rank: No.: Name: Nation: Sprint Points: Time: Behind: Points:
1 67 Mariska  Huisman NED NED 31 8:22.96 100
2 72 Jorien  Ter Mors NED NED 15 8:22.97 0.01 80
3 35 Claudia  Pechstein GER GER 14 8:23.05 0.09 70
4 57 Bo-Reum  Kim KOR KOR 12 8:23.00 0.03 60
5 7 Ivanie  Blondin CAN CAN 11 8:23.06 0.10 50
6 62 Do-Yeong  Park KOR KOR 8 8:23.65 0.69 45
7 33 Bente  Kraus GER GER 3 8:28.14 5.18 40
8 86 Karolina  Domanska-Ksyt POL POL 2 8:30.06 7.10 36
9 3 Jelena  Peeters BEL BEL 1 8:23.39 0.43 32
10 60 Jung-Soo  Lim KOR KOR 1 8:26.75 3.79 28
11 42 Masako  Hozumi JPN JPN   8:23.77 0.81 24
12 68 Marije  Joling NED NED   8:23.83 0.87 21
13 15 Brianne  Tutt CAN CAN   8:24.86 1.90 18
14 2 Nele  Armée BEL BEL   8:24.93 1.97 16
15 90 Anna  Chernova RUS RUS   8:25.34 2.38 14
16 21 Jianlu  Wang CHN CHN   8:27.95 4.99 12
17 101 Tatiana  Ushakova RUS RUS   8:28.13 5.16 10
18 97 Viktoriya  Rusalyova RUS RUS   8:28.18 5.22 8
19 5 Tatyana  Mikhailova BLR BLR   8:34.03 11.07 6
20 52 Risa  Takayama JPN JPN   8:48.24 25.28 5
21 1 Brooke  Lochland AUS AUS   9:10.61 47.65 4
22 105 Maria  Lamb USA USA   9:21.71 58.75 3
23 27 Sara  Bak-Briand DEN DEN   DQ 0